Time;durP1;ratioP1;P1;durP2;ratioP2;P2;SDS_P1;SDS_P2;PMS_P1;PMS_P2;Temp;Humidity;BMP_temperature;BMP_pressure;BME280_temperature;BME280_humidity;BME280_pressure;Samples;Min_cycle;Max_cycle;Signal;HPM_P1;HPM_P2
2023/04/30 00:03:00;;;;;;;14.93;8.75;;;;;;;-146.07;100.00;70291.31;10411234;28;20028;-77
2023/04/30 00:08:00;;;;;;;19.83;8.75;;;;;;;-146.07;100.00;70291.31;10424884;28;20025;-77
2023/04/30 00:13:01;;;;;;;18.52;8.50;;;;;;;-146.07;100.00;70291.31;10407397;28;20033;-77
2023/04/30 00:18:02;;;;;;;17.98;9.48;;;;;;;-146.07;100.00;70291.31;10412420;28;20483;-78
2023/04/30 00:23:02;;;;;;;16.45;9.05;;;;;;;-146.07;100.00;70291.31;10408931;28;20518;-77
2023/04/30 00:28:03;;;;;;;22.65;9.70;;;;;;;-146.07;100.00;70291.31;10425582;28;20032;-77
2023/04/30 00:33:04;;;;;;;20.83;10.15;;;;;;;-146.07;100.00;70291.31;10426021;28;20079;-77
2023/04/30 00:38:05;;;;;;;18.15;9.75;;;;;;;-146.07;100.00;70291.31;10407807;28;20456;-77
2023/04/30 00:43:07;;;;;;;22.60;9.98;;;;;;;-146.07;100.00;70291.31;10411632;28;20029;-77
2023/04/30 00:48:08;;;;;;;17.70;11.07;;;;;;;-146.07;100.00;70291.31;10391857;28;20029;-77
2023/04/30 00:53:09;;;;;;;22.60;10.55;;;;;;;-146.07;100.00;70291.31;10409192;28;20017;-76
2023/04/30 00:58:10;;;;;;;20.65;10.52;;;;;;;-146.07;100.00;70291.31;10426964;28;20103;-77
2023/04/30 01:03:10;;;;;;;16.67;9.23;;;;;;;-146.07;100.00;70291.31;10425124;28;20119;-77
2023/04/30 01:08:11;;;;;;;16.45;9.80;;;;;;;-146.07;100.00;70291.31;10424089;28;20037;-76
2023/04/30 01:13:24;;;;;;;23.15;11.20;;;;;;;-146.07;100.00;70291.31;10423864;28;20132;-77
2023/04/30 01:18:32;;;;;;;28.50;11.57;;;;;;;-146.07;100.00;70291.31;10402182;28;20021;-76
2023/04/30 01:23:51;;;;;;;22.70;11.23;;;;;;;-146.07;100.00;70291.31;10406114;28;20492;-77
2023/04/30 01:28:52;;;;;;;18.38;9.77;;;;;;;-146.07;100.00;70291.31;10422242;28;20111;-76
2023/04/30 01:33:53;;;;;;;24.08;11.07;;;;;;;-146.07;100.00;70291.31;10422838;28;20036;-76
2023/04/30 01:39:21;;;;;;;21.50;9.50;;;;;;;-146.07;100.00;70291.31;10422446;28;20205;-77
2023/04/30 01:44:46;;;;;;;16.02;9.75;;;;;;;-146.07;100.00;70291.31;10411528;28;20499;-75
2023/04/30 01:50:16;;;;;;;16.63;9.85;;;;;;;-146.07;100.00;70291.31;10408709;28;20602;-75
2023/04/30 01:55:26;;;;;;;18.80;10.05;;;;;;;-146.07;100.00;70291.31;10397534;28;20065;-76
2023/04/30 02:00:29;;;;;;;19.50;9.68;;;;;;;-146.07;100.00;70291.31;10413059;28;20037;-76
2023/04/30 02:05:30;;;;;;;19.85;9.02;;;;;;;-146.07;100.00;70291.31;10421046;28;20120;-75
2023/04/30 02:10:30;;;;;;;26.63;9.63;;;;;;;-146.07;100.00;70291.31;10418700;28;20017;-77
2023/04/30 02:15:31;;;;;;;21.15;9.52;;;;;;;-146.07;100.00;70291.31;10404838;28;20090;-78
2023/04/30 02:20:31;;;;;;;19.45;10.07;;;;;;;-146.07;100.00;70291.31;10404842;28;20419;-76
2023/04/30 02:25:36;;;;;;;18.70;10.73;;;;;;;-146.07;100.00;70291.31;10422329;28;20503;-75
2023/04/30 02:30:37;;;;;;;26.38;10.57;;;;;;;-146.07;100.00;70291.31;10410501;28;20275;-76
2023/04/30 02:35:40;;;;;;;17.53;9.83;;;;;;;-146.07;100.00;70291.31;10377658;28;20033;-76
2023/04/30 02:40:41;;;;;;;16.90;9.40;;;;;;;-146.07;100.00;70291.31;10414218;28;20411;-76
2023/04/30 02:45:41;;;;;;;21.92;9.98;;;;;;;-146.07;100.00;70291.31;10403833;28;20083;-77
2023/04/30 02:50:42;;;;;;;18.45;9.60;;;;;;;-146.07;100.00;70291.31;10421940;28;20616;-76
2023/04/30 02:55:42;;;;;;;17.47;9.90;;;;;;;-146.07;100.00;70291.31;10422000;28;20032;-77
2023/04/30 03:00:43;;;;;;;18.88;9.43;;;;;;;-146.07;100.00;70291.31;10403165;28;20287;-76
2023/04/30 03:05:43;;;;;;;17.33;8.13;;;;;;;-146.07;100.00;70291.31;10404048;28;20565;-76
2023/04/30 03:10:44;;;;;;;14.20;5.93;;;;;;;-146.07;100.00;70291.31;10422840;28;20268;-76
2023/04/30 03:15:44;;;;;;;10.00;5.60;;;;;;;-146.07;100.00;70291.31;10426130;28;20288;-76
2023/04/30 03:20:44;;;;;;;10.98;6.45;;;;;;;-146.07;100.00;70291.31;10412935;28;20681;-76
2023/04/30 03:25:45;;;;;;;9.13;5.78;;;;;;;-146.07;100.00;70291.31;10423485;28;20048;-76
2023/04/30 03:30:45;;;;;;;11.55;6.13;;;;;;;-146.07;100.00;70291.31;10387481;28;20021;-77
2023/04/30 03:35:46;;;;;;;9.05;6.57;;;;;;;-146.07;100.00;70291.31;10429498;28;20029;-76
2023/04/30 03:40:46;;;;;;;10.88;6.30;;;;;;;-146.07;100.00;70291.31;10399633;28;20036;-77
2023/04/30 03:45:47;;;;;;;11.18;5.65;;;;;;;-146.07;100.00;70291.31;10429127;28;20033;-76
2023/04/30 03:50:47;;;;;;;9.40;5.78;;;;;;;-146.07;100.00;70291.31;10427489;28;20737;-76
2023/04/30 03:55:49;;;;;;;11.68;5.95;;;;;;;-146.07;100.00;70291.31;10427780;28;20467;-76
2023/04/30 04:00:49;;;;;;;12.02;5.95;;;;;;;-146.07;100.00;70291.31;10427779;28;20123;-76
2023/04/30 04:05:50;;;;;;;14.23;6.63;;;;;;;-146.07;100.00;70291.31;10427820;28;20075;-77
2023/04/30 04:10:50;;;;;;;12.23;5.50;;;;;;;-146.07;100.00;70291.31;10427239;28;20028;-76
2023/04/30 04:15:50;;;;;;;9.13;4.73;;;;;;;-146.07;100.00;70291.31;10422320;28;20598;-75
2023/04/30 04:20:51;;;;;;;10.07;5.43;;;;;;;-146.07;100.00;70291.31;10422363;28;20312;-76
2023/04/30 04:25:52;;;;;;;14.75;5.13;;;;;;;-146.07;100.00;70291.31;10421602;28;20635;-77
2023/04/30 04:30:53;;;;;;;15.38;6.13;;;;;;;-146.07;100.00;70291.31;10404629;28;20060;-77
2023/04/30 04:35:53;;;;;;;17.05;7.22;;;;;;;-146.07;100.00;70291.31;10405059;28;20052;-77
2023/04/30 04:40:55;;;;;;;11.10;6.72;;;;;;;-146.07;100.00;70291.31;10423107;28;20060;-77
2023/04/30 04:45:56;;;;;;;13.60;7.13;;;;;;;-146.07;100.00;70291.31;10401645;28;20049;-77
2023/04/30 04:50:56;;;;;;;19.88;7.15;;;;;;;-146.07;100.00;70291.31;10407247;28;20206;-75
2023/04/30 04:55:56;;;;;;;15.13;8.00;;;;;;;-146.07;100.00;70291.31;10425439;28;20468;-76
2023/04/30 05:00:58;;;;;;;20.97;7.60;;;;;;;-146.07;100.00;70291.31;10426368;28;20025;-76
2023/04/30 05:05:59;;;;;;;16.25;7.90;;;;;;;-146.07;100.00;70291.31;10396167;28;20762;-76
2023/04/30 05:10:59;;;;;;;10.75;6.82;;;;;;;-146.07;100.00;70291.31;10423751;28;20130;-77
2023/04/30 05:16:00;;;;;;;12.65;6.38;;;;;;;-146.07;100.00;70291.31;10434141;28;20065;-75
2023/04/30 05:21:00;;;;;;;10.60;6.35;;;;;;;-146.07;100.00;70291.31;10429338;28;20476;-75
2023/04/30 05:26:02;;;;;;;10.00;6.45;;;;;;;-146.07;100.00;70291.31;10433587;28;20051;-74
2023/04/30 05:31:02;;;;;;;12.40;6.07;;;;;;;-146.07;100.00;70291.31;10414492;28;20033;-75
2023/04/30 05:36:03;;;;;;;10.98;6.82;;;;;;;-146.07;100.00;70291.31;10422532;28;20033;-74
2023/04/30 05:41:03;;;;;;;21.25;8.50;;;;;;;-146.07;100.00;70291.31;10416372;28;20698;-71
2023/04/30 05:46:05;;;;;;;16.63;8.00;;;;;;;-146.07;100.00;70291.31;10396586;28;20029;-77
2023/04/30 05:51:05;;;;;;;17.13;8.30;;;;;;;-146.07;100.00;70291.31;10420591;28;20047;-81
2023/04/30 05:56:07;;;;;;;16.05;7.95;;;;;;;-146.07;100.00;70291.31;10398849;28;20040;-77
2023/04/30 06:01:09;;;;;;;14.25;8.73;;;;;;;-146.07;100.00;70291.31;10398295;28;20440;-79
2023/04/30 06:06:10;;;;;;;14.35;8.15;;;;;;;-146.07;100.00;70291.31;10397863;28;20432;-77
2023/04/30 06:11:12;;;;;;;16.55;9.32;;;;;;;-146.07;100.00;70291.31;10398117;28;20032;-73
2023/04/30 06:16:12;;;;;;;16.42;8.60;;;;;;;-146.07;100.00;70291.31;10394888;28;20422;-75
2023/04/30 06:21:12;;;;;;;17.73;8.30;;;;;;;-146.07;100.00;70291.31;10386666;28;20041;-70
2023/04/30 06:26:14;;;;;;;19.37;7.77;;;;;;;-146.07;100.00;70291.31;10395916;28;20115;-73
2023/04/30 06:31:14;;;;;;;13.75;8.50;;;;;;;-146.07;100.00;70291.31;10394700;28;20294;-76
2023/04/30 06:36:15;;;;;;;18.33;8.77;;;;;;;-146.07;100.00;70291.31;10384605;28;20037;-73
2023/04/30 06:41:16;;;;;;;17.42;8.13;;;;;;;-146.07;100.00;70291.31;10398631;28;20796;-71
2023/04/30 06:46:16;;;;;;;12.80;7.13;;;;;;;-146.07;100.00;70291.31;10394985;28;20036;-69
2023/04/30 06:51:17;;;;;;;17.85;8.82;;;;;;;-146.07;100.00;70291.31;10401044;28;20029;-71
2023/04/30 06:56:17;;;;;;;20.83;9.50;;;;;;;-146.07;100.00;70291.31;10399971;28;20887;-69
2023/04/30 07:01:20;;;;;;;23.70;10.45;;;;;;;-146.07;100.00;70291.31;10407318;28;20036;-74
2023/04/30 07:06:21;;;;;;;18.83;9.80;;;;;;;-146.07;100.00;70291.31;10406331;28;20048;-74
2023/04/30 07:11:22;;;;;;;20.38;9.70;;;;;;;-146.07;100.00;70291.31;10405499;28;20037;-73
2023/04/30 07:16:24;;;;;;;21.35;10.35;;;;;;;-146.07;100.00;70291.31;10405942;28;20060;-73
2023/04/30 07:21:24;;;;;;;26.17;11.05;;;;;;;-146.07;100.00;70291.31;10407227;28;20119;-77
2023/04/30 07:26:25;;;;;;;20.08;10.60;;;;;;;-146.07;100.00;70291.31;10407257;28;20028;-80
2023/04/30 07:31:25;;;;;;;25.77;11.65;;;;;;;-146.07;100.00;70291.31;10409990;28;20021;-78
2023/04/30 07:36:26;;;;;;;20.52;11.18;;;;;;;-146.07;100.00;70291.31;10402007;28;20035;-77
2023/04/30 07:41:26;;;;;;;24.65;11.52;;;;;;;-146.07;100.00;70291.31;10401520;28;20041;-80
2023/04/30 07:46:27;;;;;;;22.88;11.52;;;;;;;-146.07;100.00;70291.31;10395583;28;20036;-80
2023/04/30 07:51:27;;;;;;;20.75;10.05;;;;;;;-146.07;100.00;70291.31;10406277;28;20032;-74
2023/04/30 07:56:28;;;;;;;26.08;11.88;;;;;;;-146.07;100.00;70291.31;10399869;28;20033;-79
2023/04/30 08:01:28;;;;;;;17.42;8.68;;;;;;;-146.07;100.00;70291.31;10389445;28;20037;-73
2023/04/30 08:06:29;;;;;;;21.45;9.27;;;;;;;-146.07;100.00;70291.31;10400861;28;20580;-72
2023/04/30 08:11:29;;;;;;;19.33;8.25;;;;;;;-146.07;100.00;70291.31;10398788;28;20416;-73
2023/04/30 08:16:30;;;;;;;14.90;6.47;;;;;;;-146.07;100.00;70291.31;10395142;28;20045;-72
2023/04/30 08:21:31;;;;;;;11.17;5.77;;;;;;;-146.07;100.00;70291.31;10405350;28;20825;-73
2023/04/30 08:26:31;;;;;;;12.43;5.47;;;;;;;-146.07;100.00;70291.31;10387372;28;20030;-72
2023/04/30 08:31:32;;;;;;;12.05;5.25;;;;;;;19.20;72.68;94557.56;10397845;28;20145;-73
2023/04/30 08:36:32;;;;;;;9.90;4.22;;;;;;;18.91;67.26;94555.69;10401711;28;20052;-74
2023/04/30 08:41:34;;;;;;;9.20;4.40;;;;;;;18.37;72.11;94561.72;10391513;28;20033;-73
2023/04/30 08:46:37;;;;;;;11.57;4.57;;;;;;;17.69;89.25;94552.28;10400282;28;20766;-75
2023/04/30 08:51:37;;;;;;;7.65;4.32;;;;;;;17.45;99.65;94552.78;10404947;28;20029;-79
2023/04/30 08:56:39;;;;;;;11.05;4.47;;;;;;;17.59;94.63;94550.69;10397831;28;20017;-75
2023/04/30 09:01:40;;;;;;;9.88;4.68;;;;;;;18.33;92.91;94544.44;10398069;28;20029;-76
2023/04/30 09:06:42;;;;;;;10.32;4.35;;;;;;;19.20;74.96;94530.31;10394199;28;20439;-75
2023/04/30 09:11:42;;;;;;;7.13;3.97;;;;;;;18.26;71.13;94529.41;10396405;28;20025;-76
2023/04/30 09:16:51;;;;;;;4.93;3.70;;;;;;;19.68;66.03;94513.69;10394121;28;20041;-76
2023/04/30 09:21:52;;;;;;;8.60;3.17;;;;;;;22.26;52.08;94505.38;10404074;28;20313;-76
2023/04/30 09:26:52;;;;;;;3.88;2.35;;;;;;;24.87;41.02;94485.41;10392702;28;20036;-78
2023/04/30 09:32:07;;;;;;;4.82;2.70;;;;;;;25.63;39.75;94487.16;10392081;28;20025;-77
2023/04/30 09:37:09;;;;;;;7.57;2.40;;;;;;;25.11;40.18;94478.66;10398094;28;20554;-80
2023/04/30 09:42:10;;;;;;;4.93;2.58;;;;;;;28.01;36.38;94465.97;10392466;28;20033;-78
2023/04/30 09:47:19;;;;;;;3.20;2.00;;;;;;;30.21;32.72;94459.88;10402484;28;20037;-78
2023/04/30 09:52:20;;;;;;;5.55;2.05;;;;;;;31.24;29.51;94456.63;10394107;28;20053;-76
2023/04/30 09:57:23;;;;;;;2.45;1.80;;;;;;;30.71;30.31;94442.84;10401271;28;20036;-76
2023/04/30 10:02:24;;;;;;;2.38;1.85;;;;;;;28.62;31.20;94455.75;10388097;28;20065;-76
2023/04/30 10:07:35;;;;;;;4.18;2.15;;;;;;;26.36;34.33;94445.41;10392926;28;20817;-76
2023/04/30 10:12:43;;;;;;;6.40;3.05;;;;;;;24.21;37.47;94456.13;10374696;28;20546;-76
2023/04/30 10:17:49;;;;;;;9.05;2.60;;;;;;;24.85;36.61;94439.06;10398155;28;20454;-78
2023/04/30 10:22:50;;;;;;;3.42;2.10;;;;;;;24.38;38.88;94443.84;10390398;28;20120;-76
2023/04/30 10:27:51;;;;;;;7.00;2.72;;;;;;;25.21;37.96;94424.97;10402094;28;20025;-77
2023/04/30 10:33:11;;;;;;;3.72;2.60;;;;;;;23.84;38.82;94451.16;10406270;28;20492;-77
2023/04/30 10:38:21;;;;;;;8.35;2.92;;;;;;;21.92;42.86;94492.03;10395260;28;20423;-77
2023/04/30 10:43:23;;;;;;;8.27;3.35;;;;;;;19.56;55.98;94507.06;10396402;28;20029;-76
2023/04/30 10:48:24;;;;;;;10.55;4.82;;;;;;;18.02;95.10;94519.13;10401429;28;20037;-77
2023/04/30 10:53:29;;;;;;;12.80;5.78;;;;;;;15.50;100.00;94511.09;10396320;28;20032;-78
2023/04/30 10:58:31;;;;;;;11.55;5.45;;;;;;;16.18;100.00;94502.81;10401228;28;20091;-76
2023/04/30 11:03:33;;;;;;;6.35;3.70;;;;;;;19.52;100.00;94497.97;10406593;28;20017;-76
2023/04/30 11:08:36;;;;;;;7.97;3.25;;;;;;;21.78;76.73;94483.44;10403093;28;20035;-76
2023/04/30 11:13:40;;;;;;;3.70;2.80;;;;;;;20.70;62.16;94485.84;10397673;28;20461;-77
2023/04/30 11:18:46;;;;;;;6.18;3.20;;;;;;;19.16;73.68;94490.44;10400907;28;20128;-76
2023/04/30 11:23:48;;;;;;;6.82;3.13;;;;;;;19.39;80.12;94480.78;10404343;28;20026;-78
2023/04/30 11:28:53;;;;;;;4.53;2.67;;;;;;;19.75;69.83;94476.56;10399653;28;20483;-78
2023/04/30 11:33:54;;;;;;;7.88;2.92;;;;;;;19.97;60.51;94474.59;10407071;28;20516;-78
2023/04/30 11:38:56;;;;;;;3.95;2.40;;;;;;;20.13;67.16;94472.75;10397983;28;20440;-77
2023/04/30 11:43:56;;;;;;;3.22;2.47;;;;;;;20.15;59.27;94467.00;10380784;28;20132;-76
2023/04/30 11:48:57;;;;;;;5.13;2.47;;;;;;;20.17;56.15;94466.66;10391207;28;20031;-76
2023/04/30 11:53:58;;;;;;;3.47;2.05;;;;;;;20.24;58.71;94483.25;10392646;28;20264;-76
2023/04/30 11:58:59;;;;;;;7.63;2.50;;;;;;;20.07;60.89;94476.84;10394749;28;20516;-76
2023/04/30 12:03:59;;;;;;;4.47;2.47;;;;;;;19.71;69.66;94483.03;10396732;28;20025;-74
2023/04/30 12:09:07;;;;;;;6.25;2.45;;;;;;;19.56;70.49;94473.56;10401011;28;20021;-75
2023/04/30 12:14:09;;;;;;;2.90;2.38;;;;;;;19.35;71.84;94468.16;10397549;28;20064;-78
2023/04/30 12:19:13;;;;;;;3.33;2.47;;;;;;;18.59;75.73;94470.84;10402477;28;20040;-77
2023/04/30 12:24:15;;;;;;;3.13;2.17;;;;;;;18.12;78.56;94488.03;10396387;28;20472;-77
2023/04/30 12:29:17;;;;;;;3.13;2.30;;;;;;;17.77;78.55;94513.41;10392474;28;20033;-77
2023/04/30 12:34:17;;;;;;;6.10;2.72;;;;;;;17.20;94.82;94513.69;10394988;28;20104;-76
2023/04/30 12:39:18;;;;;;;6.57;3.33;;;;;;;16.72;100.00;94497.19;10398304;28;20081;-77
2023/04/30 12:44:22;;;;;;;6.00;2.63;;;;;;;16.14;100.00;94503.75;10392141;28;20025;-76
2023/04/30 12:49:32;;;;;;;5.95;2.92;;;;;;;15.65;100.00;94498.28;10402144;28;20048;-76
2023/04/30 12:54:34;;;;;;;5.70;3.08;;;;;;;15.28;100.00;94508.41;10393078;28;20078;-74
2023/04/30 12:59:54;;;;;;;3.95;3.30;;;;;;;15.23;100.00;94503.91;10398670;28;20041;-74
2023/04/30 13:04:55;;;;;;;4.10;2.85;;;;;;;15.12;100.00;94506.06;10399139;28;20479;-74
2023/04/30 13:09:56;;;;;;;4.05;3.13;;;;;;;15.28;100.00;94503.78;10398900;28;20116;-74
2023/04/30 13:14:56;;;;;;;4.83;2.83;;;;;;;15.06;100.00;94501.88;10403225;28;20040;-74
2023/04/30 13:19:56;;;;;;;6.00;3.00;;;;;;;14.89;100.00;94497.16;10397938;28;20412;-74
2023/04/30 13:24:57;;;;;;;6.60;2.60;;;;;;;15.12;100.00;94470.06;10395797;28;20075;-74
2023/04/30 13:29:58;;;;;;;3.72;2.97;;;;;;;15.37;100.00;94453.19;10403669;28;20275;-75
2023/04/30 13:34:59;;;;;;;3.90;2.80;;;;;;;15.68;100.00;94446.16;10395682;28;20032;-80
2023/04/30 13:40:00;;;;;;;4.70;2.53;;;;;;;15.78;100.00;94448.63;10407211;28;20440;-76
2023/04/30 13:45:00;;;;;;;2.53;2.33;;;;;;;16.27;100.00;94445.91;10399482;28;20353;-77
2023/04/30 13:50:02;;;;;;;3.63;2.72;;;;;;;16.84;100.00;94446.91;10404594;28;20029;-78
2023/04/30 13:55:03;;;;;;;10.25;2.67;;;;;;;17.19;100.00;94442.28;10400071;28;20486;-79
2023/04/30 14:00:05;;;;;;;8.50;3.58;;;;;;;17.53;100.00;94442.53;10395036;28;20463;-78
2023/04/30 14:05:06;;;;;;;5.50;3.45;;;;;;;17.71;99.24;94435.91;10405596;28;20037;-77
2023/04/30 14:10:07;;;;;;;5.88;3.20;;;;;;;17.81;96.26;94429.28;10399178;28;20025;-78
2023/04/30 14:15:08;;;;;;;3.03;2.20;;;;;;;17.83;89.87;94427.03;10391866;28;20501;-79
2023/04/30 14:20:12;;;;;;;10.27;3.88;;;;;;;17.71;90.70;94425.03;10381136;28;20509;-73
2023/04/30 14:25:13;;;;;;;11.18;3.05;;;;;;;17.68;92.07;94431.13;10399168;28;20026;-76
2023/04/30 14:30:14;;;;;;;7.53;2.88;;;;;;;17.49;94.11;94428.00;10403386;28;20057;-79
2023/04/30 14:35:15;;;;;;;5.53;2.88;;;;;;;17.19;90.03;94423.28;10408658;28;20082;-77
2023/04/30 14:40:15;;;;;;;3.33;2.55;;;;;;;17.06;90.80;94421.53;10392287;28;20087;-77
2023/04/30 14:45:15;;;;;;;7.05;3.28;;;;;;;16.95;96.01;94421.06;10401787;28;20032;-77
2023/04/30 14:50:16;;;;;;;5.38;3.10;;;;;;;16.86;97.79;94426.47;10405523;28;20417;-77
2023/04/30 14:55:16;;;;;;;6.28;2.90;;;;;;;16.90;100.00;94423.94;10392154;28;20118;-77
2023/04/30 15:00:17;;;;;;;5.10;3.28;;;;;;;16.64;100.00;94429.34;10404709;28;20112;-77
2023/04/30 15:05:17;;;;;;;4.95;2.78;;;;;;;16.37;100.00;94428.53;10401168;28;20025;-78
2023/04/30 15:10:18;;;;;;;5.45;2.85;;;;;;;16.11;100.00;94426.56;10405494;28;20013;-79
2023/04/30 15:15:21;;;;;;;4.80;3.38;;;;;;;15.69;100.00;94429.59;10412587;28;20041;-79
2023/04/30 15:20:21;;;;;;;5.97;3.53;;;;;;;15.72;100.00;94439.00;10404176;28;20480;-79
2023/04/30 15:25:25;;;;;;;4.40;3.28;;;;;;;15.73;100.00;94441.41;10403642;28;20160;-78
2023/04/30 15:30:26;;;;;;;8.43;3.47;;;;;;;15.81;100.00;94442.59;10401855;28;20083;-79
2023/04/30 15:35:26;;;;;;;4.53;2.60;;;;;;;15.58;100.00;94439.13;10412577;28;20029;-78
2023/04/30 15:40:27;;;;;;;8.10;2.90;;;;;;;15.75;100.00;94438.38;10400150;28;20029;-79
2023/04/30 15:45:28;;;;;;;5.37;2.63;;;;;;;15.98;100.00;94433.72;10411386;28;20116;-79
2023/04/30 15:50:28;;;;;;;6.75;3.15;;;;;;;16.18;100.00;94431.53;10408310;28;20280;-79
2023/04/30 15:55:29;;;;;;;4.80;2.95;;;;;;;16.31;100.00;94436.03;10413658;28;20044;-79
2023/04/30 16:00:30;;;;;;;5.68;2.97;;;;;;;16.36;100.00;94419.59;10411285;28;20531;-80
2023/04/30 16:05:30;;;;;;;4.63;3.20;;;;;;;16.49;100.00;94427.91;10412199;28;20057;-81
2023/04/30 16:10:31;;;;;;;5.00;2.80;;;;;;;16.60;100.00;94431.09;10409182;28;20464;-79
2023/04/30 16:15:31;;;;;;;3.95;2.70;;;;;;;16.57;100.00;94427.09;10409289;28;20424;-79
2023/04/30 16:20:32;;;;;;;3.85;2.78;;;;;;;16.62;100.00;94429.66;10414383;28;20024;-81
2023/04/30 16:25:32;;;;;;;9.27;4.60;;;;;;;16.66;100.00;94433.34;10414790;28;20025;-78
2023/04/30 16:30:33;;;;;;;4.00;3.30;;;;;;;16.58;100.00;94436.84;10406589;28;20159;-79
2023/04/30 16:35:33;;;;;;;6.38;2.92;;;;;;;16.51;99.95;94442.75;10386377;28;20025;-78
2023/04/30 16:40:34;;;;;;;4.97;3.03;;;;;;;16.42;100.00;94438.44;10404673;28;20495;-79
2023/04/30 16:45:34;;;;;;;7.18;3.55;;;;;;;16.28;100.00;94452.13;10405960;28;20284;-78
2023/04/30 16:50:35;;;;;;;5.60;3.00;;;;;;;16.05;100.00;94447.59;10388304;28;20162;-78
2023/04/30 16:55:35;;;;;;;8.48;3.10;;;;;;;15.88;100.00;94448.34;10408014;28;20686;-79
2023/04/30 17:00:36;;;;;;;7.32;3.15;;;;;;;15.61;100.00;94445.81;10410174;28;20028;-79
2023/04/30 17:05:36;;;;;;;5.28;3.58;;;;;;;15.55;100.00;94443.25;10409916;28;20094;-78
2023/04/30 17:10:38;;;;;;;10.35;3.05;;;;;;;15.38;100.00;94457.50;10392770;28;20022;-79
2023/04/30 17:15:39;;;;;;;7.72;3.55;;;;;;;15.33;100.00;94451.41;10409398;28;20384;-78
2023/04/30 17:20:40;;;;;;;13.82;3.80;;;;;;;15.12;100.00;94468.16;10404286;28;20084;-79
2023/04/30 17:25:44;;;;;;;4.78;3.25;;;;;;;15.04;100.00;94474.31;10405312;28;20119;-77
2023/04/30 17:30:44;;;;;;;6.60;4.22;;;;;;;14.85;100.00;94475.28;10391046;28;20029;-78
2023/04/30 17:35:56;;;;;;;10.05;4.05;;;;;;;14.80;100.00;94485.44;10404994;28;20468;-80
2023/04/30 17:40:56;;;;;;;10.10;3.97;;;;;;;14.55;100.00;94494.91;10409135;28;20037;-81
2023/04/30 17:46:16;;;;;;;10.90;4.28;;;;;;;14.40;100.00;94506.84;10412873;28;20025;-81
2023/04/30 17:51:23;;;;;;;7.57;4.25;;;;;;;14.46;100.00;94509.13;10411823;28;20114;-79
2023/04/30 17:56:27;;;;;;;13.27;5.55;;;;;;;14.37;100.00;94529.88;10406145;28;20037;-80
2023/04/30 18:01:27;;;;;;;6.53;4.72;;;;;;;14.29;100.00;94534.09;10392271;28;20025;-78
2023/04/30 18:06:28;;;;;;;12.18;6.72;;;;;;;14.14;100.00;94532.47;10392093;28;20471;-79
2023/04/30 18:11:32;;;;;;;12.73;6.10;;;;;;;14.16;100.00;94540.28;10383763;28;20021;-78
2023/04/30 18:16:33;;;;;;;9.00;5.60;;;;;;;13.98;100.00;94552.78;10384633;28;20451;-77
2023/04/30 18:21:34;;;;;;;12.10;5.63;;;;;;;13.79;100.00;94552.88;10394483;28;20142;-76
2023/04/30 18:26:35;;;;;;;16.87;7.23;;;;;;;13.72;100.00;94558.66;10400263;28;20677;-76
2023/04/30 18:31:36;;;;;;;23.60;7.90;;;;;;;13.63;100.00;94568.53;10391419;28;20024;-73
2023/04/30 18:36:37;;;;;;;20.73;7.30;;;;;;;13.39;100.00;94576.78;10400707;28;20116;-77
2023/04/30 18:41:37;;;;;;;11.85;6.70;;;;;;;13.37;100.00;94584.34;10396960;28;20029;-75
2023/04/30 18:46:38;;;;;;;17.80;7.78;;;;;;;13.18;100.00;94576.25;10395698;28;20035;-74
2023/04/30 18:51:38;;;;;;;20.42;9.65;;;;;;;13.05;100.00;94596.69;10385373;28;20033;-74
2023/04/30 18:56:39;;;;;;;17.15;8.02;;;;;;;13.05;100.00;94597.50;10399728;28;20457;-76
2023/04/30 19:01:40;;;;;;;20.02;8.70;;;;;;;12.99;100.00;94598.63;10413395;28;20551;-75
2023/04/30 19:06:41;;;;;;;19.63;8.93;;;;;;;12.96;100.00;94591.13;10403671;28;20076;-76
2023/04/30 19:11:41;;;;;;;14.77;7.85;;;;;;;12.88;100.00;94599.88;10404336;28;20025;-75
2023/04/30 19:16:43;;;;;;;16.63;7.53;;;;;;;13.02;100.00;94599.94;10409228;28;20042;-76
2023/04/30 19:21:43;;;;;;;14.52;7.60;;;;;;;13.12;100.00;94600.63;10416178;28;20289;-75
2023/04/30 19:26:44;;;;;;;11.10;6.13;;;;;;;13.14;100.00;94609.25;10411377;28;20029;-77
2023/04/30 19:31:44;;;;;;;12.17;6.97;;;;;;;13.11;100.00;94598.22;10391004;28;20094;-75
2023/04/30 19:36:44;;;;;;;12.27;7.53;;;;;;;13.09;100.00;94603.91;10406791;28;20283;-78
2023/04/30 19:41:47;;;;;;;11.18;6.68;;;;;;;13.04;100.00;94616.66;10399650;28;20306;-77
2023/04/30 19:46:47;;;;;;;17.30;6.55;;;;;;;12.95;100.00;94625.41;10409367;28;20472;-77
2023/04/30 19:51:48;;;;;;;10.77;6.53;;;;;;;-146.07;100.00;70291.31;10413525;28;20083;-78
2023/04/30 19:56:51;;;;;;;11.57;6.15;;;;;;;-146.07;100.00;70291.31;10409455;28;20032;-77
2023/04/30 20:01:52;;;;;;;15.18;7.50;;;;;;;-146.07;100.00;70291.31;10416413;28;20094;-78
2023/04/30 20:06:56;;;;;;;18.45;7.80;;;;;;;-146.07;100.00;70291.31;10396047;28;20043;-77
2023/04/30 20:11:56;;;;;;;33.33;16.10;;;;;;;-146.07;100.00;70291.31;10412613;28;20443;-77
2023/04/30 20:16:57;;;;;;;36.88;16.98;;;;;;;-146.07;100.00;70291.31;10380914;28;20041;-77
2023/04/30 20:21:57;;;;;;;30.92;15.20;;;;;;;-146.07;100.00;70291.31;10368113;28;20029;-77
2023/04/30 20:27:02;;;;;;;29.88;16.25;;;;;;;-146.07;100.00;70291.31;10364184;28;20029;-79
2023/04/30 20:32:04;;;;;;;33.25;16.30;;;;;;;-146.07;100.00;70291.31;10357680;28;20400;-77
2023/04/30 20:37:04;;;;;;;27.85;15.18;;;;;;;-146.07;100.00;70291.31;10355435;28;20033;-78
2023/04/30 20:42:05;;;;;;;21.47;12.73;;;;;;;-146.07;100.00;70291.31;10369130;28;20033;-79
2023/04/30 20:47:07;;;;;;;23.75;13.55;;;;;;;-146.07;100.00;70291.31;10393155;28;20284;-78
2023/04/30 20:52:14;;;;;;;25.15;13.35;;;;;;;-146.07;100.00;70291.31;10361836;28;20033;-78
2023/04/30 20:57:29;;;;;;;28.17;13.85;;;;;;;-146.07;100.00;70291.31;10365682;28;20034;-79
2023/04/30 21:02:30;;;;;;;21.63;12.48;;;;;;;-146.07;100.00;70291.31;10365842;28;20052;-79
2023/04/30 21:07:33;;;;;;;26.40;11.98;;;;;;;-146.07;100.00;70291.31;10365455;28;20631;-78
2023/04/30 21:12:34;;;;;;;24.80;12.50;;;;;;;-146.07;100.00;70291.31;10366712;28;20040;-79
2023/04/30 21:17:34;;;;;;;23.92;11.73;;;;;;;-146.07;100.00;70291.31;10403642;28;20036;-79
2023/04/30 21:22:35;;;;;;;23.55;11.07;;;;;;;-146.07;100.00;70291.31;10406343;28;20024;-80
2023/04/30 21:27:36;;;;;;;19.40;11.25;;;;;;;-146.07;100.00;70291.31;10405707;28;20036;-80
2023/04/30 21:32:37;;;;;;;21.25;10.50;;;;;;;-146.07;100.00;70291.31;10404136;28;20017;-81
2023/04/30 21:37:37;;;;;;;17.00;10.20;;;;;;;-146.07;100.00;70291.31;10396776;28;20033;-81
2023/04/30 21:42:37;;;;;;;20.20;9.50;;;;;;;-146.07;100.00;70291.31;10408759;28;20068;-81
2023/04/30 21:47:38;;;;;;;19.90;9.60;;;;;;;-146.07;100.00;70291.31;10405771;28;20086;-80
2023/04/30 21:52:39;;;;;;;15.60;9.00;;;;;;;-146.07;100.00;70291.31;10395359;28;20330;-80
2023/04/30 21:57:40;;;;;;;14.40;8.57;;;;;;;-146.07;100.00;70291.31;10405909;28;20036;-80
2023/04/30 22:02:41;;;;;;;17.23;7.97;;;;;;;-146.07;100.00;70291.31;10402616;28;20033;-80
2023/04/30 22:07:41;;;;;;;13.60;7.88;;;;;;;-146.07;100.00;70291.31;10393760;28;20032;-80
2023/04/30 22:12:42;;;;;;;15.40;7.80;;;;;;;-146.07;100.00;70291.31;10412235;28;20439;-78
2023/04/30 22:17:42;;;;;;;14.65;8.10;;;;;;;-146.07;100.00;70291.31;10395125;28;20315;-78
2023/04/30 22:22:43;;;;;;;16.00;7.53;;;;;;;-146.07;100.00;70291.31;10419654;28;20029;-77
2023/04/30 22:27:44;;;;;;;10.65;6.35;;;;;;;-146.07;100.00;70291.31;10403047;28;20024;-77
2023/04/30 22:32:45;;;;;;;12.75;7.18;;;;;;;-146.07;100.00;70291.31;10424043;28;20056;-77
2023/04/30 22:37:45;;;;;;;15.43;8.63;;;;;;;-146.07;100.00;70291.31;10424601;28;20558;-77
2023/04/30 22:42:46;;;;;;;17.30;8.13;;;;;;;-146.07;100.00;70291.31;10424214;28;20137;-77